sensor_id;sensor_type;location;lat;lon;timestamp;P1;durP1;ratioP1;P2;durP2;ratioP2
37199;SDS011;23096;50.892;16.746;2024-03-08T00:01:30;42.50;;;25.20;;
37199;SDS011;23096;50.892;16.746;2024-03-08T00:03:56;37.90;;;23.40;;
37199;SDS011;23096;50.892;16.746;2024-03-08T00:06:22;40.50;;;21.60;;
37199;SDS011;23096;50.892;16.746;2024-03-08T00:08:47;36.90;;;24.20;;
37199;SDS011;23096;50.892;16.746;2024-03-08T00:11:13;42.50;;;23.30;;
37199;SDS011;23096;50.892;16.746;2024-03-08T00:13:38;44.20;;;23.40;;
37199;SDS011;23096;50.892;16.746;2024-03-08T00:16:04;46.90;;;24.70;;
37199;SDS011;23096;50.892;16.746;2024-03-08T00:18:29;44.50;;;26.20;;
37199;SDS011;23096;50.892;16.746;2024-03-08T00:20:55;40.10;;;25.70;;
37199;SDS011;23096;50.892;16.746;2024-03-08T00:23:21;36.50;;;23.70;;
37199;SDS011;23096;50.892;16.746;2024-03-08T00:25:46;40.80;;;22.30;;
37199;SDS011;23096;50.892;16.746;2024-03-08T00:28:12;42.60;;;23.30;;
37199;SDS011;23096;50.892;16.746;2024-03-08T00:30:40;39.90;;;22.50;;
37199;SDS011;23096;50.892;16.746;2024-03-08T00:33:05;40.60;;;22.00;;
37199;SDS011;23096;50.892;16.746;2024-03-08T00:35:31;38.30;;;22.40;;
37199;SDS011;23096;50.892;16.746;2024-03-08T00:37:56;40.30;;;23.90;;
37199;SDS011;23096;50.892;16.746;2024-03-08T00:40:22;40.90;;;24.40;;
37199;SDS011;23096;50.892;16.746;2024-03-08T00:42:48;40.00;;;23.30;;
37199;SDS011;23096;50.892;16.746;2024-03-08T00:45:13;37.40;;;22.90;;
37199;SDS011;23096;50.892;16.746;2024-03-08T00:47:39;40.40;;;22.00;;
37199;SDS011;23096;50.892;16.746;2024-03-08T00:50:04;40.10;;;24.00;;
37199;SDS011;23096;50.892;16.746;2024-03-08T00:52:30;41.90;;;23.00;;
37199;SDS011;23096;50.892;16.746;2024-03-08T00:54:55;39.80;;;24.00;;
37199;SDS011;23096;50.892;16.746;2024-03-08T00:57:21;43.50;;;23.90;;
37199;SDS011;23096;50.892;16.746;2024-03-08T00:59:47;43.70;;;25.30;;
37199;SDS011;23096;50.892;16.746;2024-03-08T01:02:13;42.10;;;23.70;;
37199;SDS011;23096;50.892;16.746;2024-03-08T01:04:38;43.80;;;25.10;;
37199;SDS011;23096;50.892;16.746;2024-03-08T01:07:04;40.50;;;25.10;;
37199;SDS011;23096;50.892;16.746;2024-03-08T01:09:30;39.80;;;23.60;;
37199;SDS011;23096;50.892;16.746;2024-03-08T01:11:56;41.10;;;24.20;;
37199;SDS011;23096;50.892;16.746;2024-03-08T01:14:23;35.40;;;22.30;;
37199;SDS011;23096;50.892;16.746;2024-03-08T01:16:50;42.90;;;24.20;;
37199;SDS011;23096;50.892;16.746;2024-03-08T01:19:16;34.50;;;21.40;;
37199;SDS011;23096;50.892;16.746;2024-03-08T01:21:42;37.40;;;22.90;;
37199;SDS011;23096;50.892;16.746;2024-03-08T01:24:08;37.40;;;22.50;;
37199;SDS011;23096;50.892;16.746;2024-03-08T01:26:34;38.00;;;22.60;;
37199;SDS011;23096;50.892;16.746;2024-03-08T01:28:59;40.50;;;23.30;;
37199;SDS011;23096;50.892;16.746;2024-03-08T01:31:28;36.30;;;23.10;;
37199;SDS011;23096;50.892;16.746;2024-03-08T01:33:57;41.30;;;23.40;;
37199;SDS011;23096;50.892;16.746;2024-03-08T01:36:23;37.40;;;22.60;;
37199;SDS011;23096;50.892;16.746;2024-03-08T01:38:50;40.80;;;24.10;;
37199;SDS011;23096;50.892;16.746;2024-03-08T01:41:16;35.50;;;22.10;;
37199;SDS011;23096;50.892;16.746;2024-03-08T01:43:43;36.00;;;21.90;;
37199;SDS011;23096;50.892;16.746;2024-03-08T01:46:09;39.00;;;23.00;;
37199;SDS011;23096;50.892;16.746;2024-03-08T01:48:36;38.00;;;22.50;;
37199;SDS011;23096;50.892;16.746;2024-03-08T01:51:02;36.20;;;21.90;;
37199;SDS011;23096;50.892;16.746;2024-03-08T01:53:28;37.80;;;23.10;;
37199;SDS011;23096;50.892;16.746;2024-03-08T01:55:55;40.20;;;22.20;;
37199;SDS011;23096;50.892;16.746;2024-03-08T01:58:23;34.90;;;21.20;;
37199;SDS011;23096;50.892;16.746;2024-03-08T02:00:53;38.50;;;22.60;;
37199;SDS011;23096;50.892;16.746;2024-03-08T02:03:19;34.80;;;20.70;;
37199;SDS011;23096;50.892;16.746;2024-03-08T02:05:45;38.50;;;23.60;;
37199;SDS011;23096;50.892;16.746;2024-03-08T02:08:11;36.20;;;21.70;;
37199;SDS011;23096;50.892;16.746;2024-03-08T02:10:40;32.40;;;21.20;;
37199;SDS011;23096;50.892;16.746;2024-03-08T02:13:09;35.00;;;20.90;;
37199;SDS011;23096;50.892;16.746;2024-03-08T02:18:20;35.60;;;22.00;;
37199;SDS011;23096;50.892;16.746;2024-03-08T02:20:49;37.00;;;22.50;;
37199;SDS011;23096;50.892;16.746;2024-03-08T02:23:16;37.70;;;22.20;;
37199;SDS011;23096;50.892;16.746;2024-03-08T02:25:42;36.50;;;20.20;;
37199;SDS011;23096;50.892;16.746;2024-03-08T02:28:11;35.00;;;20.40;;
37199;SDS011;23096;50.892;16.746;2024-03-08T02:30:37;36.20;;;20.90;;
37199;SDS011;23096;50.892;16.746;2024-03-08T02:33:04;37.00;;;21.50;;
37199;SDS011;23096;50.892;16.746;2024-03-08T02:35:30;30.10;;;19.50;;
37199;SDS011;23096;50.892;16.746;2024-03-08T02:37:55;34.90;;;20.30;;
37199;SDS011;23096;50.892;16.746;2024-03-08T02:40:21;35.40;;;21.10;;
37199;SDS011;23096;50.892;16.746;2024-03-08T02:42:47;33.30;;;21.10;;
37199;SDS011;23096;50.892;16.746;2024-03-08T02:45:13;35.10;;;21.80;;
37199;SDS011;23096;50.892;16.746;2024-03-08T02:47:38;35.40;;;21.40;;
37199;SDS011;23096;50.892;16.746;2024-03-08T02:50:04;36.70;;;21.60;;
37199;SDS011;23096;50.892;16.746;2024-03-08T02:52:36;33.20;;;21.10;;
37199;SDS011;23096;50.892;16.746;2024-03-08T02:55:01;37.50;;;21.40;;
37199;SDS011;23096;50.892;16.746;2024-03-08T02:57:27;35.80;;;21.30;;
37199;SDS011;23096;50.892;16.746;2024-03-08T02:59:53;36.10;;;21.50;;
37199;SDS011;23096;50.892;16.746;2024-03-08T03:02:19;40.00;;;22.70;;
37199;SDS011;23096;50.892;16.746;2024-03-08T03:04:45;38.10;;;21.50;;
37199;SDS011;23096;50.892;16.746;2024-03-08T03:07:10;38.20;;;22.60;;
37199;SDS011;23096;50.892;16.746;2024-03-08T03:09:36;36.70;;;21.90;;
37199;SDS011;23096;50.892;16.746;2024-03-08T03:12:02;39.20;;;22.50;;
37199;SDS011;23096;50.892;16.746;2024-03-08T03:14:27;35.50;;;22.50;;
37199;SDS011;23096;50.892;16.746;2024-03-08T03:16:53;33.80;;;20.00;;
37199;SDS011;23096;50.892;16.746;2024-03-08T03:19:19;36.40;;;21.90;;
37199;SDS011;23096;50.892;16.746;2024-03-08T03:21:45;38.60;;;22.40;;
37199;SDS011;23096;50.892;16.746;2024-03-08T03:24:11;36.70;;;22.60;;
37199;SDS011;23096;50.892;16.746;2024-03-08T03:26:37;40.90;;;22.60;;
37199;SDS011;23096;50.892;16.746;2024-03-08T03:29:07;34.70;;;21.20;;
37199;SDS011;23096;50.892;16.746;2024-03-08T03:31:34;34.10;;;20.90;;
37199;SDS011;23096;50.892;16.746;2024-03-08T03:34:01;36.10;;;21.80;;
37199;SDS011;23096;50.892;16.746;2024-03-08T03:36:31;32.30;;;21.50;;
37199;SDS011;23096;50.892;16.746;2024-03-08T03:38:57;37.40;;;21.30;;
37199;SDS011;23096;50.892;16.746;2024-03-08T03:41:30;38.00;;;21.90;;
37199;SDS011;23096;50.892;16.746;2024-03-08T03:43:56;37.90;;;21.80;;
37199;SDS011;23096;50.892;16.746;2024-03-08T03:46:21;35.40;;;21.70;;
37199;SDS011;23096;50.892;16.746;2024-03-08T03:48:47;38.70;;;22.90;;
37199;SDS011;23096;50.892;16.746;2024-03-08T03:51:13;41.10;;;24.30;;
37199;SDS011;23096;50.892;16.746;2024-03-08T03:53:40;44.00;;;24.10;;
37199;SDS011;23096;50.892;16.746;2024-03-08T03:56:06;37.00;;;22.20;;
37199;SDS011;23096;50.892;16.746;2024-03-08T03:58:32;42.80;;;23.70;;
37199;SDS011;23096;50.892;16.746;2024-03-08T04:00:58;35.30;;;22.80;;
37199;SDS011;23096;50.892;16.746;2024-03-08T04:03:24;40.60;;;25.10;;
37199;SDS011;23096;50.892;16.746;2024-03-08T04:05:49;37.80;;;23.10;;
37199;SDS011;23096;50.892;16.746;2024-03-08T04:08:16;39.80;;;24.40;;
37199;SDS011;23096;50.892;16.746;2024-03-08T04:10:42;39.10;;;21.70;;
37199;SDS011;23096;50.892;16.746;2024-03-08T04:13:07;35.60;;;21.40;;
37199;SDS011;23096;50.892;16.746;2024-03-08T04:15:34;38.40;;;22.30;;
37199;SDS011;23096;50.892;16.746;2024-03-08T04:18:00;38.10;;;22.10;;
37199;SDS011;23096;50.892;16.746;2024-03-08T04:20:26;37.80;;;22.10;;
37199;SDS011;23096;50.892;16.746;2024-03-08T04:22:51;36.40;;;21.30;;
37199;SDS011;23096;50.892;16.746;2024-03-08T04:25:17;39.80;;;22.40;;
37199;SDS011;23096;50.892;16.746;2024-03-08T04:27:42;38.90;;;21.60;;
37199;SDS011;23096;50.892;16.746;2024-03-08T04:30:09;34.30;;;20.30;;
37199;SDS011;23096;50.892;16.746;2024-03-08T04:32:35;39.60;;;22.20;;
37199;SDS011;23096;50.892;16.746;2024-03-08T04:35:01;41.40;;;23.20;;
37199;SDS011;23096;50.892;16.746;2024-03-08T04:37:27;31.10;;;20.10;;
37199;SDS011;23096;50.892;16.746;2024-03-08T04:39:55;36.60;;;21.40;;
37199;SDS011;23096;50.892;16.746;2024-03-08T04:42:20;39.50;;;22.50;;
37199;SDS011;23096;50.892;16.746;2024-03-08T04:44:46;44.60;;;25.20;;
37199;SDS011;23096;50.892;16.746;2024-03-08T04:47:12;39.80;;;24.20;;
37199;SDS011;23096;50.892;16.746;2024-03-08T04:49:38;42.20;;;25.90;;
37199;SDS011;23096;50.892;16.746;2024-03-08T04:52:03;47.80;;;27.50;;
37199;SDS011;23096;50.892;16.746;2024-03-08T04:54:30;43.20;;;25.50;;
37199;SDS011;23096;50.892;16.746;2024-03-08T04:56:56;43.20;;;24.90;;
37199;SDS011;23096;50.892;16.746;2024-03-08T04:59:22;40.70;;;25.10;;
37199;SDS011;23096;50.892;16.746;2024-03-08T05:01:47;38.40;;;24.80;;
37199;SDS011;23096;50.892;16.746;2024-03-08T05:04:13;36.80;;;23.60;;
37199;SDS011;23096;50.892;16.746;2024-03-08T05:06:39;42.80;;;26.20;;
37199;SDS011;23096;50.892;16.746;2024-03-08T05:09:04;42.30;;;25.40;;
37199;SDS011;23096;50.892;16.746;2024-03-08T05:11:42;43.00;;;24.20;;
37199;SDS011;23096;50.892;16.746;2024-03-08T05:14:11;45.50;;;25.50;;
37199;SDS011;23096;50.892;16.746;2024-03-08T05:16:44;40.40;;;24.40;;
37199;SDS011;23096;50.892;16.746;2024-03-08T05:19:19;42.20;;;24.60;;
37199;SDS011;23096;50.892;16.746;2024-03-08T05:21:46;38.90;;;25.00;;
37199;SDS011;23096;50.892;16.746;2024-03-08T05:24:15;43.50;;;26.00;;
37199;SDS011;23096;50.892;16.746;2024-03-08T05:26:41;45.20;;;27.70;;
37199;SDS011;23096;50.892;16.746;2024-03-08T05:29:07;49.60;;;31.60;;
37199;SDS011;23096;50.892;16.746;2024-03-08T05:31:47;51.70;;;34.40;;
37199;SDS011;23096;50.892;16.746;2024-03-08T05:34:14;55.60;;;32.90;;
37199;SDS011;23096;50.892;16.746;2024-03-08T05:36:41;53.10;;;33.90;;
37199;SDS011;23096;50.892;16.746;2024-03-08T05:39:09;55.40;;;31.70;;
37199;SDS011;23096;50.892;16.746;2024-03-08T05:41:38;56.30;;;33.70;;
37199;SDS011;23096;50.892;16.746;2024-03-08T05:44:07;63.20;;;32.50;;
37199;SDS011;23096;50.892;16.746;2024-03-08T05:46:33;64.20;;;34.10;;
37199;SDS011;23096;50.892;16.746;2024-03-08T05:48:59;58.50;;;34.30;;
37199;SDS011;23096;50.892;16.746;2024-03-08T05:51:25;53.00;;;30.20;;
37199;SDS011;23096;50.892;16.746;2024-03-08T05:53:54;48.60;;;29.10;;
37199;SDS011;23096;50.892;16.746;2024-03-08T05:56:22;41.80;;;25.00;;
37199;SDS011;23096;50.892;16.746;2024-03-08T05:58:50;43.70;;;25.70;;
37199;SDS011;23096;50.892;16.746;2024-03-08T06:01:15;43.40;;;25.60;;
37199;SDS011;23096;50.892;16.746;2024-03-08T06:03:41;44.50;;;24.40;;
37199;SDS011;23096;50.892;16.746;2024-03-08T06:06:13;46.60;;;27.10;;
37199;SDS011;23096;50.892;16.746;2024-03-08T06:08:39;45.30;;;25.90;;
37199;SDS011;23096;50.892;16.746;2024-03-08T06:11:05;49.50;;;26.70;;
37199;SDS011;23096;50.892;16.746;2024-03-08T06:13:34;41.10;;;24.60;;
37199;SDS011;23096;50.892;16.746;2024-03-08T06:16:00;42.60;;;26.80;;
37199;SDS011;23096;50.892;16.746;2024-03-08T06:18:30;42.20;;;25.90;;
37199;SDS011;23096;50.892;16.746;2024-03-08T06:20:59;41.40;;;25.50;;
37199;SDS011;23096;50.892;16.746;2024-03-08T06:23:24;45.00;;;26.80;;
37199;SDS011;23096;50.892;16.746;2024-03-08T06:25:50;49.80;;;29.40;;
37199;SDS011;23096;50.892;16.746;2024-03-08T06:28:15;45.90;;;27.60;;
37199;SDS011;23096;50.892;16.746;2024-03-08T06:30:42;42.70;;;26.80;;
37199;SDS011;23096;50.892;16.746;2024-03-08T06:33:08;47.80;;;27.60;;
37199;SDS011;23096;50.892;16.746;2024-03-08T06:35:33;52.90;;;29.50;;
37199;SDS011;23096;50.892;16.746;2024-03-08T06:38:00;50.60;;;29.20;;
37199;SDS011;23096;50.892;16.746;2024-03-08T06:40:25;47.10;;;27.60;;
37199;SDS011;23096;50.892;16.746;2024-03-08T06:42:51;48.50;;;27.10;;
37199;SDS011;23096;50.892;16.746;2024-03-08T06:45:17;48.60;;;28.90;;
37199;SDS011;23096;50.892;16.746;2024-03-08T06:47:46;60.50;;;31.50;;
37199;SDS011;23096;50.892;16.746;2024-03-08T06:50:12;46.10;;;26.30;;
37199;SDS011;23096;50.892;16.746;2024-03-08T06:52:37;49.10;;;30.40;;
37199;SDS011;23096;50.892;16.746;2024-03-08T06:55:04;52.30;;;27.90;;
37199;SDS011;23096;50.892;16.746;2024-03-08T06:57:31;47.70;;;29.20;;
37199;SDS011;23096;50.892;16.746;2024-03-08T06:59:57;47.60;;;28.90;;
37199;SDS011;23096;50.892;16.746;2024-03-08T07:02:23;52.00;;;26.90;;
37199;SDS011;23096;50.892;16.746;2024-03-08T07:04:51;45.70;;;27.70;;
37199;SDS011;23096;50.892;16.746;2024-03-08T07:07:18;54.70;;;31.50;;
37199;SDS011;23096;50.892;16.746;2024-03-08T07:09:45;54.10;;;32.30;;
37199;SDS011;23096;50.892;16.746;2024-03-08T07:12:11;55.00;;;30.80;;
37199;SDS011;23096;50.892;16.746;2024-03-08T07:14:38;52.60;;;30.50;;
37199;SDS011;23096;50.892;16.746;2024-03-08T07:17:06;48.40;;;27.00;;
37199;SDS011;23096;50.892;16.746;2024-03-08T07:19:34;53.80;;;31.00;;
37199;SDS011;23096;50.892;16.746;2024-03-08T07:22:00;52.20;;;30.60;;
37199;SDS011;23096;50.892;16.746;2024-03-08T07:24:25;57.60;;;32.60;;
37199;SDS011;23096;50.892;16.746;2024-03-08T07:27:10;59.30;;;31.10;;
37199;SDS011;23096;50.892;16.746;2024-03-08T07:29:35;58.60;;;32.70;;
37199;SDS011;23096;50.892;16.746;2024-03-08T07:32:01;55.90;;;34.30;;
37199;SDS011;23096;50.892;16.746;2024-03-08T07:34:45;66.70;;;36.40;;
37199;SDS011;23096;50.892;16.746;2024-03-08T07:37:10;64.80;;;37.30;;
37199;SDS011;23096;50.892;16.746;2024-03-08T07:39:36;63.60;;;34.50;;
37199;SDS011;23096;50.892;16.746;2024-03-08T07:42:04;60.50;;;33.70;;
37199;SDS011;23096;50.892;16.746;2024-03-08T07:44:29;56.00;;;33.30;;
37199;SDS011;23096;50.892;16.746;2024-03-08T07:46:56;56.30;;;35.10;;
37199;SDS011;23096;50.892;16.746;2024-03-08T07:49:21;60.90;;;36.50;;
37199;SDS011;23096;50.892;16.746;2024-03-08T07:51:47;59.20;;;36.90;;
37199;SDS011;23096;50.892;16.746;2024-03-08T07:54:14;64.70;;;35.70;;
37199;SDS011;23096;50.892;16.746;2024-03-08T07:56:40;69.50;;;39.90;;
37199;SDS011;23096;50.892;16.746;2024-03-08T07:59:05;70.30;;;38.90;;
37199;SDS011;23096;50.892;16.746;2024-03-08T08:01:31;59.60;;;35.10;;
37199;SDS011;23096;50.892;16.746;2024-03-08T08:03:58;68.80;;;37.20;;
37199;SDS011;23096;50.892;16.746;2024-03-08T08:06:26;62.20;;;35.50;;
37199;SDS011;23096;50.892;16.746;2024-03-08T08:08:52;61.90;;;36.80;;
37199;SDS011;23096;50.892;16.746;2024-03-08T08:11:18;56.90;;;34.90;;
37199;SDS011;23096;50.892;16.746;2024-03-08T08:13:45;61.80;;;36.10;;
37199;SDS011;23096;50.892;16.746;2024-03-08T08:16:11;62.10;;;36.70;;
37199;SDS011;23096;50.892;16.746;2024-03-08T08:18:37;60.00;;;37.20;;
37199;SDS011;23096;50.892;16.746;2024-03-08T08:21:03;61.60;;;37.40;;
37199;SDS011;23096;50.892;16.746;2024-03-08T08:23:32;55.40;;;35.60;;
37199;SDS011;23096;50.892;16.746;2024-03-08T08:25:57;63.10;;;37.50;;
37199;SDS011;23096;50.892;16.746;2024-03-08T08:28:23;54.80;;;34.10;;
37199;SDS011;23096;50.892;16.746;2024-03-08T08:30:51;65.70;;;36.70;;
37199;SDS011;23096;50.892;16.746;2024-03-08T08:33:19;66.80;;;38.90;;
37199;SDS011;23096;50.892;16.746;2024-03-08T08:35:44;69.40;;;40.00;;
37199;SDS011;23096;50.892;16.746;2024-03-08T08:38:10;65.70;;;38.40;;
37199;SDS011;23096;50.892;16.746;2024-03-08T08:40:36;68.00;;;37.30;;
37199;SDS011;23096;50.892;16.746;2024-03-08T08:43:02;59.60;;;36.20;;
37199;SDS011;23096;50.892;16.746;2024-03-08T08:45:32;67.80;;;40.00;;
37199;SDS011;23096;50.892;16.746;2024-03-08T08:47:58;64.30;;;39.90;;
37199;SDS011;23096;50.892;16.746;2024-03-08T08:50:25;59.90;;;37.10;;
37199;SDS011;23096;50.892;16.746;2024-03-08T08:52:53;60.90;;;38.10;;
37199;SDS011;23096;50.892;16.746;2024-03-08T08:55:19;62.40;;;39.30;;
37199;SDS011;23096;50.892;16.746;2024-03-08T08:57:51;61.50;;;37.30;;
37199;SDS011;23096;50.892;16.746;2024-03-08T09:00:20;64.40;;;36.20;;
37199;SDS011;23096;50.892;16.746;2024-03-08T09:02:47;67.00;;;42.00;;
37199;SDS011;23096;50.892;16.746;2024-03-08T09:05:16;63.10;;;39.60;;
37199;SDS011;23096;50.892;16.746;2024-03-08T09:07:44;63.40;;;40.50;;
37199;SDS011;23096;50.892;16.746;2024-03-08T09:10:10;71.50;;;40.90;;
37199;SDS011;23096;50.892;16.746;2024-03-08T09:12:38;67.10;;;39.50;;
37199;SDS011;23096;50.892;16.746;2024-03-08T09:15:04;60.70;;;38.30;;
37199;SDS011;23096;50.892;16.746;2024-03-08T09:17:36;67.70;;;42.20;;
37199;SDS011;23096;50.892;16.746;2024-03-08T09:20:08;68.10;;;39.70;;
37199;SDS011;23096;50.892;16.746;2024-03-08T09:22:35;61.30;;;40.00;;
37199;SDS011;23096;50.892;16.746;2024-03-08T09:25:01;87.60;;;48.50;;
37199;SDS011;23096;50.892;16.746;2024-03-08T09:27:27;72.60;;;43.10;;
37199;SDS011;23096;50.892;16.746;2024-03-08T09:29:53;75.40;;;45.80;;
37199;SDS011;23096;50.892;16.746;2024-03-08T09:32:20;80.30;;;46.00;;
37199;SDS011;23096;50.892;16.746;2024-03-08T09:34:45;70.30;;;43.70;;
37199;SDS011;23096;50.892;16.746;2024-03-08T09:37:11;65.20;;;41.20;;
37199;SDS011;23096;50.892;16.746;2024-03-08T09:39:36;63.00;;;40.60;;
37199;SDS011;23096;50.892;16.746;2024-03-08T09:42:02;71.30;;;42.50;;
37199;SDS011;23096;50.892;16.746;2024-03-08T09:44:28;68.80;;;42.30;;
37199;SDS011;23096;50.892;16.746;2024-03-08T09:46:57;67.90;;;42.20;;
37199;SDS011;23096;50.892;16.746;2024-03-08T09:49:27;65.20;;;42.70;;
37199;SDS011;23096;50.892;16.746;2024-03-08T09:51:52;68.20;;;39.10;;
37199;SDS011;23096;50.892;16.746;2024-03-08T09:54:18;68.00;;;41.50;;
37199;SDS011;23096;50.892;16.746;2024-03-08T09:56:45;68.70;;;40.50;;
37199;SDS011;23096;50.892;16.746;2024-03-08T09:59:12;64.10;;;39.80;;
37199;SDS011;23096;50.892;16.746;2024-03-08T10:01:53;66.60;;;39.60;;
37199;SDS011;23096;50.892;16.746;2024-03-08T10:04:23;60.00;;;38.90;;
37199;SDS011;23096;50.892;16.746;2024-03-08T10:06:50;61.00;;;38.30;;
37199;SDS011;23096;50.892;16.746;2024-03-08T10:09:17;60.70;;;37.30;;
37199;SDS011;23096;50.892;16.746;2024-03-08T10:11:43;55.70;;;35.40;;
37199;SDS011;23096;50.892;16.746;2024-03-08T10:14:08;53.70;;;34.40;;
37199;SDS011;23096;50.892;16.746;2024-03-08T10:16:35;52.30;;;33.00;;
37199;SDS011;23096;50.892;16.746;2024-03-08T10:19:00;56.30;;;34.10;;
37199;SDS011;23096;50.892;16.746;2024-03-08T10:21:26;51.30;;;30.10;;
37199;SDS011;23096;50.892;16.746;2024-03-08T10:23:52;46.30;;;30.40;;
37199;SDS011;23096;50.892;16.746;2024-03-08T10:26:18;51.00;;;32.20;;
37199;SDS011;23096;50.892;16.746;2024-03-08T10:28:56;52.90;;;32.80;;
37199;SDS011;23096;50.892;16.746;2024-03-08T10:31:23;49.30;;;28.80;;
37199;SDS011;23096;50.892;16.746;2024-03-08T10:33:48;43.30;;;27.10;;
37199;SDS011;23096;50.892;16.746;2024-03-08T10:36:15;44.20;;;29.30;;
37199;SDS011;23096;50.892;16.746;2024-03-08T10:38:41;47.60;;;31.70;;
37199;SDS011;23096;50.892;16.746;2024-03-08T10:41:09;46.90;;;31.00;;
37199;SDS011;23096;50.892;16.746;2024-03-08T10:43:43;50.50;;;31.40;;
37199;SDS011;23096;50.892;16.746;2024-03-08T10:46:18;50.20;;;32.30;;
37199;SDS011;23096;50.892;16.746;2024-03-08T10:48:52;49.10;;;32.70;;
37199;SDS011;23096;50.892;16.746;2024-03-08T10:51:21;49.90;;;32.60;;
37199;SDS011;23096;50.892;16.746;2024-03-08T10:53:48;48.20;;;31.40;;
37199;SDS011;23096;50.892;16.746;2024-03-08T10:56:14;52.70;;;33.80;;
37199;SDS011;23096;50.892;16.746;2024-03-08T10:58:40;53.20;;;35.40;;
37199;SDS011;23096;50.892;16.746;2024-03-08T11:01:06;51.60;;;34.10;;
37199;SDS011;23096;50.892;16.746;2024-03-08T11:06:28;50.80;;;30.80;;
37199;SDS011;23096;50.892;16.746;2024-03-08T11:08:57;48.40;;;31.10;;
37199;SDS011;23096;50.892;16.746;2024-03-08T11:11:27;47.00;;;30.80;;
37199;SDS011;23096;50.892;16.746;2024-03-08T11:13:57;55.30;;;35.30;;
37199;SDS011;23096;50.892;16.746;2024-03-08T11:18:59;48.30;;;31.30;;
37199;SDS011;23096;50.892;16.746;2024-03-08T11:21:30;43.70;;;29.30;;
37199;SDS011;23096;50.892;16.746;2024-03-08T11:24:16;44.50;;;30.10;;
37199;SDS011;23096;50.892;16.746;2024-03-08T11:26:42;43.60;;;29.50;;
37199;SDS011;23096;50.892;16.746;2024-03-08T11:32:19;42.70;;;27.80;;
37199;SDS011;23096;50.892;16.746;2024-03-08T11:34:48;42.80;;;27.60;;
37199;SDS011;23096;50.892;16.746;2024-03-08T11:37:17;43.10;;;27.00;;
37199;SDS011;23096;50.892;16.746;2024-03-08T11:39:49;39.20;;;27.00;;
37199;SDS011;23096;50.892;16.746;2024-03-08T11:42:16;43.80;;;28.40;;
37199;SDS011;23096;50.892;16.746;2024-03-08T11:44:46;46.80;;;28.30;;
37199;SDS011;23096;50.892;16.746;2024-03-08T11:47:13;41.40;;;28.80;;
37199;SDS011;23096;50.892;16.746;2024-03-08T11:49:39;42.00;;;27.70;;
37199;SDS011;23096;50.892;16.746;2024-03-08T11:52:12;40.00;;;27.40;;
37199;SDS011;23096;50.892;16.746;2024-03-08T11:54:39;42.70;;;28.60;;
37199;SDS011;23096;50.892;16.746;2024-03-08T11:57:14;37.30;;;26.70;;
37199;SDS011;23096;50.892;16.746;2024-03-08T11:59:39;41.30;;;27.50;;
37199;SDS011;23096;50.892;16.746;2024-03-08T12:02:05;42.90;;;28.50;;
37199;SDS011;23096;50.892;16.746;2024-03-08T12:04:32;39.50;;;26.70;;
37199;SDS011;23096;50.892;16.746;2024-03-08T12:07:01;37.10;;;24.90;;
37199;SDS011;23096;50.892;16.746;2024-03-08T12:09:37;37.40;;;25.50;;
37199;SDS011;23096;50.892;16.746;2024-03-08T12:12:03;40.50;;;27.30;;
37199;SDS011;23096;50.892;16.746;2024-03-08T12:14:32;39.60;;;26.30;;
37199;SDS011;23096;50.892;16.746;2024-03-08T12:17:01;40.30;;;26.90;;
37199;SDS011;23096;50.892;16.746;2024-03-08T12:19:27;40.00;;;26.80;;
37199;SDS011;23096;50.892;16.746;2024-03-08T12:21:54;38.40;;;25.50;;
37199;SDS011;23096;50.892;16.746;2024-03-08T12:24:20;40.50;;;26.30;;
37199;SDS011;23096;50.892;16.746;2024-03-08T12:26:46;36.40;;;25.90;;
37199;SDS011;23096;50.892;16.746;2024-03-08T12:29:26;38.00;;;27.00;;
37199;SDS011;23096;50.892;16.746;2024-03-08T12:31:58;36.90;;;25.90;;
37199;SDS011;23096;50.892;16.746;2024-03-08T12:34:27;32.40;;;24.20;;
37199;SDS011;23096;50.892;16.746;2024-03-08T12:36:53;38.30;;;25.20;;
37199;SDS011;23096;50.892;16.746;2024-03-08T12:39:20;41.10;;;26.10;;
37199;SDS011;23096;50.892;16.746;2024-03-08T12:41:49;35.10;;;24.60;;
37199;SDS011;23096;50.892;16.746;2024-03-08T12:44:18;37.30;;;24.70;;
37199;SDS011;23096;50.892;16.746;2024-03-08T12:46:47;38.00;;;25.70;;
37199;SDS011;23096;50.892;16.746;2024-03-08T12:49:13;36.80;;;25.10;;
37199;SDS011;23096;50.892;16.746;2024-03-08T12:51:45;38.10;;;25.20;;
37199;SDS011;23096;50.892;16.746;2024-03-08T12:54:11;35.40;;;25.10;;
37199;SDS011;23096;50.892;16.746;2024-03-08T12:56:37;37.00;;;24.30;;
37199;SDS011;23096;50.892;16.746;2024-03-08T12:59:07;34.40;;;24.10;;
37199;SDS011;23096;50.892;16.746;2024-03-08T13:01:33;37.30;;;26.10;;
37199;SDS011;23096;50.892;16.746;2024-03-08T13:03:59;39.10;;;24.50;;
37199;SDS011;23096;50.892;16.746;2024-03-08T13:06:28;33.90;;;23.20;;
37199;SDS011;23096;50.892;16.746;2024-03-08T13:08:56;34.70;;;23.70;;
37199;SDS011;23096;50.892;16.746;2024-03-08T13:11:23;37.80;;;25.50;;
37199;SDS011;23096;50.892;16.746;2024-03-08T13:13:53;37.30;;;25.20;;
37199;SDS011;23096;50.892;16.746;2024-03-08T13:16:19;38.10;;;25.70;;
37199;SDS011;23096;50.892;16.746;2024-03-08T13:18:45;36.60;;;25.20;;
37199;SDS011;23096;50.892;16.746;2024-03-08T13:21:14;37.50;;;25.80;;
37199;SDS011;23096;50.892;16.746;2024-03-08T13:23:41;36.00;;;24.80;;
37199;SDS011;23096;50.892;16.746;2024-03-08T13:26:11;40.30;;;25.70;;
37199;SDS011;23096;50.892;16.746;2024-03-08T13:28:46;36.10;;;24.30;;
37199;SDS011;23096;50.892;16.746;2024-03-08T13:31:19;36.10;;;25.80;;
37199;SDS011;23096;50.892;16.746;2024-03-08T13:33:45;40.80;;;26.40;;
37199;SDS011;23096;50.892;16.746;2024-03-08T13:36:12;34.50;;;24.50;;
37199;SDS011;23096;50.892;16.746;2024-03-08T13:38:44;34.10;;;24.00;;
37199;SDS011;23096;50.892;16.746;2024-03-08T13:41:11;40.60;;;26.30;;
37199;SDS011;23096;50.892;16.746;2024-03-08T13:47:09;34.70;;;24.10;;
37199;SDS011;23096;50.892;16.746;2024-03-08T13:49:37;36.10;;;24.50;;
37199;SDS011;23096;50.892;16.746;2024-03-08T13:52:03;40.70;;;25.90;;
37199;SDS011;23096;50.892;16.746;2024-03-08T13:54:29;38.00;;;26.10;;
37199;SDS011;23096;50.892;16.746;2024-03-08T13:56:56;39.00;;;27.80;;
37199;SDS011;23096;50.892;16.746;2024-03-08T13:59:25;39.20;;;25.40;;
37199;SDS011;23096;50.892;16.746;2024-03-08T14:01:54;34.90;;;23.60;;
37199;SDS011;23096;50.892;16.746;2024-03-08T14:04:20;43.50;;;26.80;;
37199;SDS011;23096;50.892;16.746;2024-03-08T14:06:46;37.00;;;25.60;;
37199;SDS011;23096;50.892;16.746;2024-03-08T14:09:11;37.20;;;26.50;;
37199;SDS011;23096;50.892;16.746;2024-03-08T14:11:45;38.30;;;27.40;;
37199;SDS011;23096;50.892;16.746;2024-03-08T14:14:11;40.20;;;26.70;;
37199;SDS011;23096;50.892;16.746;2024-03-08T14:16:39;35.20;;;24.50;;
37199;SDS011;23096;50.892;16.746;2024-03-08T14:19:05;42.50;;;27.80;;
37199;SDS011;23096;50.892;16.746;2024-03-08T14:21:31;38.10;;;26.20;;
37199;SDS011;23096;50.892;16.746;2024-03-08T14:23:57;43.90;;;29.30;;